Gesves, Belgium
Current Conditions -  °F | °C
As of 5:23 PM on Wednesday 26 Nov 2014 (Local Time) from EBFS Reporting Station
Haze Haze  
Wind Chill: 41°   Ceiling: 100
Heat Index: 46°   Visibility: 0.75mi
Dew Point: 46°   Wind: 10mph
Humidity: 100%   Direction: 170°S
Pressure: 29.85"   Gusts: NA
Location:  50.4°N, 5.07°E
Report Text: EBFS 261623Z 17009KT 1200 BR BKN001 BKN003 08/08 Q1011 RED AMB TEMPO RED
Loading
Personal Weather Stations






























Interactive Weather Map New forecast layout! Learn more

10-Day Weather Forecast

Advertisements
Track Severe Weather on mobile